createdAt,value
2023-06-04T00:00:48.930Z,12.68
2023-06-04T00:03:16.574Z,14.52
2023-06-04T00:05:44.136Z,14.20
2023-06-04T00:08:12.435Z,14.43
2023-06-04T00:10:43.655Z,13.85
2023-06-04T00:13:11.134Z,14.50
2023-06-04T00:15:38.537Z,14.73
2023-06-04T00:18:06.140Z,14.82
2023-06-04T00:20:33.767Z,14.82
2023-06-04T00:23:01.148Z,14.98
2023-06-04T00:25:28.607Z,15.68
2023-06-04T00:27:56.015Z,15.32
2023-06-04T00:30:23.447Z,15.68
2023-06-04T00:32:51.030Z,15.02
2023-06-04T00:35:18.481Z,15.45
2023-06-04T00:37:46.073Z,16.48
2023-06-04T00:40:14.158Z,16.48
2023-06-04T00:42:41.539Z,17.48
2023-06-04T00:45:10.818Z,17.63
2023-06-04T00:47:38.323Z,16.48
2023-06-04T00:50:08.109Z,16.05
2023-06-04T00:52:36.164Z,15.15
2023-06-04T00:55:03.910Z,15.50
2023-06-04T00:57:31.318Z,15.20
2023-06-04T00:59:58.849Z,13.23
2023-06-04T01:02:27.234Z,13.80
2023-06-04T01:05:23.292Z,13.48
2023-06-04T01:07:51.938Z,13.43
2023-06-04T01:10:20.017Z,13.48
2023-06-04T01:12:47.520Z,13.82
2023-06-04T01:15:15.068Z,13.50
2023-06-04T01:17:52.636Z,12.75
2023-06-04T01:20:36.220Z,13.43
2023-06-04T01:23:25.227Z,13.68
2023-06-04T01:25:53.260Z,13.23
2023-06-04T01:28:22.210Z,13.35
2023-06-04T01:30:51.998Z,13.52
2023-06-04T01:33:21.432Z,12.73
2023-06-04T01:35:49.074Z,13.02
2023-06-04T01:38:16.935Z,12.50
2023-06-04T01:40:44.364Z,12.63
2023-06-04T01:43:11.870Z,12.52
2023-06-04T01:45:39.383Z,12.05
2023-06-04T01:48:07.535Z,13.63
2023-06-04T01:50:35.080Z,12.82
2023-06-04T01:53:02.969Z,12.30
2023-06-04T01:55:34.588Z,12.75
2023-06-04T01:58:02.311Z,12.77
2023-06-04T02:00:30.713Z,12.85
2023-06-04T02:02:59.367Z,13.02
2023-06-04T02:05:27.508Z,14.95
2023-06-04T02:07:54.946Z,15.25
2023-06-04T02:10:22.666Z,16.75
2023-06-04T02:13:01.841Z,17.20
2023-06-04T02:15:30.795Z,18.02
2023-06-04T02:18:22.024Z,19.90
2023-06-04T02:20:50.746Z,20.88
2023-06-04T02:23:20.473Z,22.10
2023-06-04T02:25:49.445Z,22.85
2023-06-04T02:28:16.902Z,23.27
2023-06-04T02:30:47.124Z,23.08
2023-06-04T02:33:15.608Z,24.77
2023-06-04T02:35:43.359Z,23.98
2023-06-04T02:38:11.420Z,24.30
2023-06-04T02:40:39.998Z,26.40
2023-06-04T02:43:07.439Z,25.00
2023-06-04T02:45:35.040Z,24.88
2023-06-04T02:48:02.555Z,25.52
2023-06-04T02:50:30.064Z,25.10
2023-06-04T02:52:57.555Z,24.35
2023-06-04T02:55:25.049Z,23.92
2023-06-04T02:57:53.120Z,22.10
2023-06-04T03:00:20.738Z,22.15
2023-06-04T03:02:49.891Z,20.98
2023-06-04T03:05:18.852Z,19.35
2023-06-04T03:07:47.963Z,16.02
2023-06-04T03:10:16.689Z,15.07
2023-06-04T03:12:44.463Z,14.77
2023-06-04T03:15:12.867Z,11.98
2023-06-04T03:17:42.572Z,11.88
2023-06-04T03:20:10.446Z,11.40
2023-06-04T03:22:38.565Z,11.82
2023-06-04T03:25:06.634Z,12.43
2023-06-04T03:27:35.155Z,11.82
2023-06-04T03:30:04.219Z,11.50
2023-06-04T03:32:41.204Z,10.77
2023-06-04T03:35:09.409Z,10.30
2023-06-04T03:37:36.846Z,11.93
2023-06-04T03:40:07.290Z,10.93
2023-06-04T03:42:37.407Z,10.75
2023-06-04T03:45:05.291Z,11.05
2023-06-04T03:47:33.864Z,10.43
2023-06-04T03:50:02.422Z,10.07
2023-06-04T03:52:30.367Z,10.25
2023-06-04T03:55:01.407Z,10.13
2023-06-04T03:57:30.687Z,10.23
2023-06-04T03:59:58.159Z,10.15
2023-06-04T04:02:26.200Z,10.13
2023-06-04T04:04:55.305Z,10.52
2023-06-04T04:07:24.703Z,9.95
2023-06-04T04:09:53.176Z,9.63
2023-06-04T04:12:21.564Z,8.98
2023-06-04T04:14:50.165Z,9.52
2023-06-04T04:17:18.126Z,9.25
2023-06-04T04:19:45.906Z,9.45
2023-06-04T04:22:14.129Z,9.02
2023-06-04T04:24:41.966Z,10.18
2023-06-04T04:27:12.046Z,11.15
2023-06-04T04:29:39.953Z,9.68
2023-06-04T04:32:11.627Z,10.07
2023-06-04T04:34:55.906Z,8.90
2023-06-04T04:37:31.713Z,9.20
2023-06-04T04:39:59.569Z,9.45
2023-06-04T04:42:29.980Z,9.52
2023-06-04T04:44:57.647Z,9.05
2023-06-04T04:47:27.177Z,8.98
2023-06-04T04:49:54.691Z,8.20
2023-06-04T04:52:22.125Z,8.20
2023-06-04T04:54:49.724Z,9.88
2023-06-04T04:57:17.150Z,8.30
2023-06-04T04:59:48.320Z,8.77
2023-06-04T05:02:16.675Z,9.02
2023-06-04T05:04:44.425Z,8.55
2023-06-04T05:07:14.215Z,8.88
2023-06-04T05:09:41.880Z,8.90
2023-06-04T05:12:09.694Z,8.20
2023-06-04T05:14:38.780Z,8.35
2023-06-04T05:17:07.623Z,8.80
2023-06-04T05:19:36.370Z,9.15
2023-06-04T05:22:04.348Z,9.15
2023-06-04T05:24:32.782Z,7.88
2023-06-04T05:27:04.746Z,8.95
2023-06-04T05:29:32.630Z,8.50
2023-06-04T05:32:00.279Z,8.23
2023-06-04T05:34:27.949Z,8.65
2023-06-04T05:36:58.267Z,9.13
2023-06-04T05:39:26.377Z,8.57
2023-06-04T05:41:59.478Z,9.02
2023-06-04T05:44:26.982Z,7.97
2023-06-04T05:46:54.478Z,8.43
2023-06-04T05:49:26.128Z,8.18
2023-06-04T05:51:55.377Z,8.55
2023-06-04T05:54:23.018Z,8.10
2023-06-04T05:56:51.508Z,8.13
2023-06-04T05:59:19.013Z,7.53
2023-06-04T06:01:46.454Z,7.43
2023-06-04T06:04:14.445Z,7.78
2023-06-04T06:06:45.007Z,7.75
2023-06-04T06:09:12.504Z,7.32
2023-06-04T06:11:39.944Z,7.28
2023-06-04T06:14:07.589Z,7.05
2023-06-04T06:16:35.525Z,8.07
2023-06-04T06:19:03.264Z,8.07
2023-06-04T06:21:32.238Z,6.95
2023-06-04T06:24:00.130Z,7.47
2023-06-04T06:26:27.760Z,6.90
2023-06-04T06:28:58.527Z,6.30
2023-06-04T06:31:27.158Z,8.15
2023-06-04T06:33:54.646Z,7.15
2023-06-04T06:36:22.171Z,7.38
2023-06-04T06:38:49.567Z,7.03
2023-06-04T06:41:17.004Z,8.32
2023-06-04T06:43:44.484Z,7.85
2023-06-04T06:46:11.927Z,7.90
2023-06-04T06:48:39.363Z,8.05
2023-06-04T06:51:07.045Z,7.68
2023-06-04T06:53:34.610Z,8.00
2023-06-04T06:56:02.283Z,8.45
2023-06-04T06:58:29.768Z,20.20
2023-06-04T07:00:57.770Z,8.13
2023-06-04T07:03:25.339Z,8.65
2023-06-04T07:05:52.841Z,8.00
2023-06-04T07:08:20.232Z,6.38
2023-06-04T07:10:47.700Z,7.47
2023-06-04T07:13:15.167Z,7.05
2023-06-04T07:15:42.606Z,7.45
2023-06-04T07:18:10.550Z,7.50
2023-06-04T07:20:38.003Z,7.15
2023-06-04T07:23:05.475Z,6.32
2023-06-04T07:25:32.886Z,6.70
2023-06-04T07:28:00.405Z,7.80
2023-06-04T07:30:27.916Z,7.18
2023-06-04T07:32:55.464Z,6.35
2023-06-04T07:35:22.940Z,6.57
2023-06-04T07:37:51.049Z,6.53
2023-06-04T07:40:18.688Z,7.07
2023-06-04T07:42:48.381Z,6.60
2023-06-04T07:45:16.513Z,6.72
2023-06-04T07:47:44.846Z,16.25
2023-06-04T07:50:13.217Z,6.50
2023-06-04T07:52:40.760Z,6.30
2023-06-04T07:55:09.515Z,5.43
2023-06-04T07:57:37.387Z,6.28
2023-06-04T08:00:05.843Z,5.60
2023-06-04T08:02:39.263Z,6.40
2023-06-04T08:05:07.147Z,6.20
2023-06-04T08:07:34.588Z,5.65
2023-06-04T08:10:02.133Z,5.68
2023-06-04T08:12:29.538Z,5.70
2023-06-04T08:14:58.438Z,5.72
2023-06-04T08:17:26.090Z,6.07
2023-06-04T08:19:53.603Z,5.78
2023-06-04T08:22:21.048Z,5.30
2023-06-04T08:24:48.545Z,20.20
2023-06-04T08:27:16.539Z,5.22
2023-06-04T08:29:43.961Z,5.05
2023-06-04T08:32:12.017Z,5.57
2023-06-04T08:34:39.486Z,4.90
2023-06-04T08:37:07.018Z,4.95
2023-06-04T08:39:34.514Z,5.22
2023-06-04T08:42:04.935Z,5.47
2023-06-04T08:44:32.542Z,5.90
2023-06-04T08:47:09.955Z,5.53
2023-06-04T08:49:37.852Z,5.88
2023-06-04T08:52:07.316Z,4.78
2023-06-04T08:54:35.090Z,4.82
2023-06-04T08:57:03.482Z,5.13
2023-06-04T08:59:31.104Z,5.05
2023-06-04T09:01:59.707Z,5.95
2023-06-04T09:04:27.262Z,5.38
2023-06-04T09:06:55.474Z,4.72
2023-06-04T09:09:24.760Z,5.38
2023-06-04T09:11:53.906Z,5.55
2023-06-04T09:14:21.838Z,7.07
2023-06-04T09:16:50.629Z,5.15
2023-06-04T09:19:19.808Z,5.60
2023-06-04T09:21:51.114Z,6.05
2023-06-04T09:24:22.943Z,6.03
2023-06-04T09:26:50.889Z,6.50
2023-06-04T09:29:19.392Z,6.70
2023-06-04T09:31:59.806Z,6.53
2023-06-04T09:34:31.246Z,6.40
2023-06-04T09:37:00.034Z,6.65
2023-06-04T09:39:28.239Z,7.45
2023-06-04T09:42:02.841Z,6.50
2023-06-04T09:44:31.073Z,6.68
2023-06-04T09:46:59.780Z,6.05
2023-06-04T09:49:27.393Z,7.70
2023-06-04T09:51:54.843Z,6.32
2023-06-04T09:54:22.216Z,4.97
2023-06-04T09:56:49.659Z,5.97
2023-06-04T09:59:18.994Z,5.55
2023-06-04T10:01:47.678Z,5.82
2023-06-04T10:04:16.596Z,6.38
2023-06-04T10:06:44.432Z,5.40
2023-06-04T10:09:15.115Z,5.72
2023-06-04T10:11:51.038Z,5.85
2023-06-04T10:14:18.443Z,5.40
2023-06-04T10:16:47.068Z,6.30
2023-06-04T10:19:15.532Z,5.50
2023-06-04T10:21:44.303Z,5.70
2023-06-04T10:24:13.314Z,5.05
2023-06-04T10:26:44.878Z,4.70
2023-06-04T10:29:13.707Z,5.03
2023-06-04T10:31:42.531Z,4.60
2023-06-04T10:34:10.112Z,4.45
2023-06-04T10:36:45.574Z,4.43
2023-06-04T10:39:13.589Z,5.20
2023-06-04T10:41:41.161Z,4.80
2023-06-04T10:44:08.772Z,4.70
2023-06-04T10:46:43.173Z,4.95
2023-06-04T10:49:15.771Z,4.13
2023-06-04T10:51:45.020Z,4.65
2023-06-04T10:54:26.512Z,4.30
2023-06-04T10:56:54.876Z,4.63
2023-06-04T10:59:22.823Z,4.65
2023-06-04T11:01:50.351Z,5.80
2023-06-04T11:04:24.620Z,5.13
2023-06-04T11:07:11.482Z,5.05
2023-06-04T11:09:49.614Z,4.47
2023-06-04T11:12:17.106Z,4.43
2023-06-04T11:15:00.575Z,5.20
2023-06-04T11:17:28.186Z,4.82
2023-06-04T11:19:56.817Z,4.88
2023-06-04T11:22:24.999Z,4.93
2023-06-04T11:25:00.180Z,5.47
2023-06-04T11:27:36.278Z,5.28
2023-06-04T11:30:08.757Z,4.50
2023-06-04T11:32:36.233Z,14.07
2023-06-04T11:35:06.443Z,5.20
2023-06-04T11:37:34.638Z,5.30
2023-06-04T11:40:02.449Z,5.32
2023-06-04T11:42:31.077Z,5.70
2023-06-04T11:44:59.117Z,5.68
2023-06-04T11:47:27.181Z,5.32
2023-06-04T11:49:57.793Z,6.00
2023-06-04T11:52:25.720Z,6.15
2023-06-04T11:54:53.403Z,5.90
2023-06-04T11:57:21.064Z,5.63
2023-06-04T11:59:48.628Z,5.90
2023-06-04T12:02:16.229Z,6.32
2023-06-04T12:04:43.727Z,5.88
2023-06-04T12:07:11.660Z,6.28
2023-06-04T12:09:40.308Z,5.50
2023-06-04T12:12:09.251Z,5.78
2023-06-04T12:14:36.760Z,5.45
2023-06-04T12:17:11.287Z,5.82
2023-06-04T12:19:52.198Z,5.90
2023-06-04T12:22:20.957Z,5.32
2023-06-04T12:24:57.026Z,5.40
2023-06-04T12:27:28.666Z,5.75
2023-06-04T12:30:00.677Z,5.30
2023-06-04T12:32:28.840Z,5.63
2023-06-04T12:34:56.482Z,5.55
2023-06-04T12:37:26.539Z,5.10
2023-06-04T12:39:54.867Z,4.80
2023-06-04T12:42:24.131Z,5.80
2023-06-04T12:44:51.970Z,5.20
2023-06-04T12:47:22.735Z,8.25
2023-06-04T12:49:50.284Z,5.68
2023-06-04T12:52:18.603Z,5.75
2023-06-04T12:54:46.257Z,5.10
2023-06-04T12:57:13.709Z,5.32
2023-06-04T12:59:41.135Z,5.22
2023-06-04T13:02:08.621Z,4.93
2023-06-04T13:04:36.258Z,5.30
2023-06-04T13:07:04.269Z,5.53
2023-06-04T13:09:33.631Z,4.88
2023-06-04T13:12:01.106Z,5.65
2023-06-04T13:14:28.715Z,6.35
2023-06-04T13:16:57.463Z,11.13
2023-06-04T13:19:27.964Z,6.33
2023-06-04T13:21:55.761Z,5.90
2023-06-04T13:24:23.236Z,5.32
2023-06-04T13:26:50.755Z,6.00
2023-06-04T13:29:22.721Z,5.72
2023-06-04T13:31:50.845Z,5.57
2023-06-04T13:34:27.688Z,6.43
2023-06-04T13:36:56.670Z,6.22
2023-06-04T13:39:24.152Z,5.25
2023-06-04T13:41:51.599Z,5.97
2023-06-04T13:44:19.204Z,6.13
2023-06-04T13:46:46.771Z,6.20
2023-06-04T13:49:14.186Z,6.70
2023-06-04T13:51:42.092Z,6.95
2023-06-04T13:54:11.835Z,6.75
2023-06-04T13:56:40.666Z,6.10
2023-06-04T13:59:08.093Z,5.88
2023-06-04T14:01:35.989Z,5.88
2023-06-04T14:04:07.524Z,6.93
2023-06-04T14:06:37.203Z,6.32
2023-06-04T14:09:08.160Z,7.32
2023-06-04T14:11:36.042Z,7.25
2023-06-04T14:14:03.439Z,6.50
2023-06-04T14:16:31.006Z,6.15
2023-06-04T14:18:58.563Z,6.25
2023-06-04T14:21:26.194Z,6.20
2023-06-04T14:23:54.931Z,6.93
2023-06-04T14:26:23.499Z,6.25
2023-06-04T14:28:50.963Z,6.57
2023-06-04T14:31:18.393Z,6.38
2023-06-04T14:33:45.879Z,7.07
2023-06-04T14:36:13.369Z,7.03
2023-06-04T14:38:41.782Z,7.95
2023-06-04T14:41:09.545Z,7.00
2023-06-04T14:43:37.280Z,6.45
2023-06-04T14:46:05.615Z,7.80
2023-06-04T14:48:33.244Z,6.88
2023-06-04T14:51:00.724Z,6.45
2023-06-04T14:53:28.169Z,6.72
2023-06-04T14:55:55.874Z,6.60
2023-06-04T14:58:23.280Z,7.13
2023-06-04T15:00:50.757Z,6.50
2023-06-04T15:03:18.284Z,10.30
2023-06-04T15:05:45.971Z,6.50
2023-06-04T15:08:13.680Z,6.57
2023-06-04T15:10:41.157Z,6.95
2023-06-04T15:13:08.656Z,7.43
2023-06-04T15:15:36.106Z,7.45
2023-06-04T15:18:03.670Z,7.38
2023-06-04T15:20:31.186Z,7.28
2023-06-04T15:22:58.622Z,6.00
2023-06-04T15:25:27.830Z,6.53
2023-06-04T15:27:56.460Z,7.25
2023-06-04T15:30:24.058Z,6.43
2023-06-04T15:32:51.507Z,7.35
2023-06-04T15:35:19.116Z,6.97
2023-06-04T15:37:46.581Z,7.40
2023-06-04T15:40:14.053Z,7.70
2023-06-04T15:42:41.412Z,6.85
2023-06-04T15:45:09.452Z,6.82
2023-06-04T15:47:38.720Z,6.95
2023-06-04T15:50:06.976Z,6.93
2023-06-04T15:52:34.401Z,7.85
2023-06-04T15:55:01.952Z,7.60
2023-06-04T15:57:29.376Z,6.93
2023-06-04T15:59:56.796Z,7.28
2023-06-04T16:02:24.181Z,6.90
2023-06-04T16:04:51.622Z,7.85
2023-06-04T16:07:19.051Z,8.00
2023-06-04T16:09:46.472Z,8.13
2023-06-04T16:12:13.919Z,8.07
2023-06-04T16:14:41.317Z,8.18
2023-06-04T16:17:08.800Z,8.20
2023-06-04T16:19:36.286Z,8.20
2023-06-04T16:22:03.764Z,7.75
2023-06-04T16:24:31.842Z,7.68
2023-06-04T16:26:59.358Z,8.18
2023-06-04T16:29:26.803Z,8.05
2023-06-04T16:31:54.245Z,7.85
2023-06-04T16:34:21.686Z,8.32
2023-06-04T16:36:49.120Z,8.68
2023-06-04T16:39:16.683Z,8.90
2023-06-04T16:41:44.105Z,8.40
2023-06-04T16:44:11.525Z,8.52
2023-06-04T16:46:38.942Z,8.98
2023-06-04T16:49:08.839Z,8.50
2023-06-04T16:51:37.242Z,8.60
2023-06-04T16:54:04.703Z,10.10
2023-06-04T16:56:32.217Z,10.35
2023-06-04T16:58:59.595Z,9.27
2023-06-04T17:01:28.326Z,10.75
2023-06-04T17:03:55.906Z,11.60
2023-06-04T17:06:23.360Z,15.05
2023-06-04T17:08:50.813Z,16.67
2023-06-04T17:11:18.229Z,19.48
2023-06-04T17:13:45.674Z,24.10
2023-06-04T17:16:14.405Z,22.13
2023-06-04T17:18:41.904Z,24.05
2023-06-04T17:21:10.897Z,27.65
2023-06-04T17:23:39.324Z,28.75
2023-06-04T17:26:07.872Z,21.33
2023-06-04T17:28:35.477Z,18.55
2023-06-04T17:31:03.812Z,21.00
2023-06-04T17:33:34.539Z,20.13
2023-06-04T17:36:02.277Z,21.17
2023-06-04T17:38:29.714Z,20.60
2023-06-04T17:40:57.196Z,22.38
2023-06-04T17:43:24.595Z,22.48
2023-06-04T17:45:52.058Z,22.60
2023-06-04T17:48:19.769Z,18.10
2023-06-04T17:50:47.358Z,16.25
2023-06-04T17:53:14.767Z,11.50
2023-06-04T17:55:42.299Z,5.75
2023-06-04T17:58:09.792Z,5.07
2023-06-04T18:00:37.254Z,4.40
2023-06-04T18:03:05.030Z,4.40
2023-06-04T18:05:32.487Z,5.85
2023-06-04T18:08:00.034Z,5.97
2023-06-04T18:10:27.474Z,12.40
2023-06-04T18:12:54.929Z,6.75
2023-06-04T18:15:22.691Z,6.13
2023-06-04T18:17:50.161Z,6.63
2023-06-04T18:20:17.643Z,6.95
2023-06-04T18:22:45.128Z,6.75
2023-06-04T18:25:12.607Z,7.40
2023-06-04T18:27:40.020Z,7.00
2023-06-04T18:30:10.616Z,8.05
2023-06-04T18:32:38.050Z,7.68
2023-06-04T18:35:05.946Z,7.45
2023-06-04T18:37:35.995Z,7.47
2023-06-04T18:40:03.626Z,6.88
2023-06-04T18:42:31.705Z,6.50
2023-06-04T18:45:00.580Z,7.90
2023-06-04T18:47:28.534Z,7.20
2023-06-04T18:49:56.879Z,6.82
2023-06-04T18:52:26.831Z,6.60
2023-06-04T18:54:54.329Z,5.75
2023-06-04T18:57:21.897Z,6.50
2023-06-04T18:59:49.313Z,6.65
2023-06-04T19:02:16.875Z,6.88
2023-06-04T19:04:45.864Z,7.05
2023-06-04T19:07:13.229Z,7.68
2023-06-04T19:09:40.639Z,6.57
2023-06-04T19:12:08.200Z,7.68
2023-06-04T19:14:35.640Z,7.40
2023-06-04T19:17:03.474Z,8.15
2023-06-04T19:19:31.028Z,7.85
2023-06-04T19:21:59.478Z,9.43
2023-06-04T19:24:26.967Z,8.32
2023-06-04T19:26:54.526Z,8.88
2023-06-04T19:29:21.942Z,8.73
2023-06-04T19:31:49.432Z,7.35
2023-06-04T19:34:16.947Z,6.38
2023-06-04T19:36:45.325Z,7.38
2023-06-04T19:39:12.706Z,7.05
2023-06-04T19:41:40.311Z,8.13
2023-06-04T19:44:07.808Z,8.50
2023-06-04T19:46:35.334Z,8.52
2023-06-04T19:49:02.912Z,7.68
2023-06-04T19:51:30.363Z,7.63
2023-06-04T19:53:57.811Z,9.70
2023-06-04T19:56:26.692Z,9.05
2023-06-04T19:58:54.225Z,7.95
2023-06-04T20:01:21.764Z,7.13
2023-06-04T20:03:49.929Z,6.63
2023-06-04T20:06:18.174Z,8.07
2023-06-04T20:08:45.891Z,6.72
2023-06-04T20:11:13.725Z,6.38
2023-06-04T20:13:41.906Z,7.70
2023-06-04T20:16:09.622Z,6.30
2023-06-04T20:18:37.415Z,6.30
2023-06-04T20:21:04.957Z,6.68
2023-06-04T20:23:32.409Z,6.88
2023-06-04T20:26:00.069Z,6.85
2023-06-04T20:28:30.138Z,7.82
2023-06-04T20:30:57.626Z,7.05
2023-06-04T20:33:26.956Z,7.28
2023-06-04T20:35:54.407Z,7.80
2023-06-04T20:38:21.839Z,8.45
2023-06-04T20:40:49.437Z,7.43
2023-06-04T20:43:16.945Z,7.38
2023-06-04T20:45:44.538Z,8.18
2023-06-04T20:48:12.076Z,7.47
2023-06-04T20:50:39.634Z,78.25
2023-06-04T20:53:07.224Z,12.90
2023-06-04T20:55:36.235Z,7.68
2023-06-04T20:58:03.742Z,7.72
2023-06-04T21:00:32.638Z,7.55
2023-06-04T21:03:00.121Z,7.13
2023-06-04T21:05:27.631Z,7.82
2023-06-04T21:07:59.781Z,7.82
2023-06-04T21:10:28.864Z,7.47
2023-06-04T21:12:56.262Z,7.10
2023-06-04T21:15:23.704Z,7.30
2023-06-04T21:17:51.330Z,8.18
2023-06-04T21:20:19.138Z,7.22
2023-06-04T21:22:46.716Z,6.53
2023-06-04T21:25:14.300Z,7.93
2023-06-04T21:27:41.783Z,6.82
2023-06-04T21:30:09.630Z,7.53
2023-06-04T21:32:37.109Z,8.02
2023-06-04T21:35:04.915Z,8.10
2023-06-04T21:37:32.383Z,7.55
2023-06-04T21:39:59.787Z,7.38
2023-06-04T21:42:27.214Z,7.22
2023-06-04T21:44:55.099Z,7.05
2023-06-04T21:47:23.001Z,7.68
2023-06-04T21:49:50.460Z,7.68
2023-06-04T21:52:25.694Z,7.85
2023-06-04T21:54:53.672Z,7.63
2023-06-04T21:57:24.327Z,6.60
2023-06-04T21:59:51.798Z,7.10
2023-06-04T22:02:19.240Z,6.22
2023-06-04T22:04:46.649Z,6.82
2023-06-04T22:07:14.161Z,6.55
2023-06-04T22:09:41.779Z,6.72
2023-06-04T22:12:09.215Z,7.63
2023-06-04T22:14:38.757Z,7.13
2023-06-04T22:17:06.853Z,7.35
2023-06-04T22:19:34.293Z,8.35
2023-06-04T22:22:01.840Z,7.38
2023-06-04T22:24:29.297Z,7.40
2023-06-04T22:26:57.122Z,7.97
2023-06-04T22:29:24.561Z,7.93
2023-06-04T22:31:52.147Z,7.80
2023-06-04T22:34:19.687Z,8.95
2023-06-04T22:36:47.247Z,8.35
2023-06-04T22:39:14.741Z,8.77
2023-06-04T22:41:48.312Z,8.63
2023-06-04T22:44:15.898Z,8.38
2023-06-04T22:46:43.478Z,7.63
2023-06-04T22:49:11.826Z,6.82
2023-06-04T22:51:40.120Z,7.07
2023-06-04T22:54:08.063Z,6.68
2023-06-04T22:56:38.742Z,6.80
2023-06-04T22:59:06.187Z,6.70
2023-06-04T23:01:33.717Z,6.82
2023-06-04T23:04:01.347Z,6.47
2023-06-04T23:06:28.782Z,6.75
2023-06-04T23:08:56.290Z,6.60
2023-06-04T23:11:23.720Z,5.88
2023-06-04T23:13:51.301Z,5.78
2023-06-04T23:16:18.734Z,6.43
2023-06-04T23:18:46.261Z,6.45
2023-06-04T23:21:13.961Z,5.90
2023-06-04T23:23:41.485Z,6.53
2023-06-04T23:26:09.073Z,6.32
2023-06-04T23:28:36.496Z,6.75
2023-06-04T23:31:03.990Z,6.13
2023-06-04T23:33:31.590Z,5.90
2023-06-04T23:35:59.025Z,6.35
2023-06-04T23:38:26.987Z,6.28
2023-06-04T23:40:54.458Z,6.13
2023-06-04T23:43:21.868Z,6.43
2023-06-04T23:45:49.360Z,5.93
2023-06-04T23:48:17.597Z,5.95
2023-06-04T23:50:45.088Z,6.70
2023-06-04T23:53:12.513Z,6.47
2023-06-04T23:55:40.591Z,7.25
2023-06-04T23:58:08.089Z,7.47
